createdAt,value
2017-05-20T00:00:02.990Z,1002.57
2017-05-20T00:10:02.450Z,1002.73
2017-05-20T00:20:02.718Z,1003.17
2017-05-20T00:30:03.171Z,1003.43
2017-05-20T00:40:02.639Z,1003.19
2017-05-20T00:50:02.720Z,1003.17
2017-05-20T01:00:03.162Z,1003.53
2017-05-20T01:10:02.653Z,1003.54
2017-05-20T01:20:03.007Z,1003.85
2017-05-20T01:30:02.479Z,1003.81
2017-05-20T01:40:02.930Z,1003.71
2017-05-20T01:50:02.996Z,1003.91
2017-05-20T02:00:02.463Z,1003.95
2017-05-20T02:10:02.930Z,1003.98
2017-05-20T02:20:03.191Z,1003.94
2017-05-20T02:30:02.602Z,1003.95
2017-05-20T02:40:03.103Z,1003.81
2017-05-20T02:50:03.161Z,1004.02
2017-05-20T03:00:02.587Z,1004.02
2017-05-20T03:10:03.038Z,1003.87
2017-05-20T03:20:03.305Z,1003.94
2017-05-20T03:30:02.817Z,1003.94
2017-05-20T03:40:03.339Z,1003.87
2017-05-20T03:50:02.384Z,1004.1
2017-05-20T04:00:02.853Z,1004.37
2017-05-20T04:10:03.314Z,1004.41
2017-05-20T04:20:03.109Z,1004.69
2017-05-20T04:30:02.851Z,1004.83
2017-05-20T04:40:02.917Z,1005.07
2017-05-20T04:50:02.571Z,1005.16
2017-05-20T05:00:03.352Z,1005.36
2017-05-20T05:10:02.383Z,1005.47
2017-05-20T05:20:03.221Z,1005.65
2017-05-20T05:30:02.522Z,1005.69
2017-05-20T05:40:02.581Z,1005.9
2017-05-20T05:50:02.877Z,1005.89
2017-05-20T06:00:02.947Z,1005.94
2017-05-20T06:10:02.964Z,1006.14
2017-05-20T06:20:02.513Z,1006.2
2017-05-20T06:30:02.791Z,1006.16
2017-05-20T06:40:03.031Z,1006.23
2017-05-20T06:50:02.874Z,1006.39
2017-05-20T07:00:02.952Z,1006.42
2017-05-20T07:10:02.465Z,1006.34
2017-05-20T07:20:02.861Z,1006.3
2017-05-20T07:30:03.168Z,1006.31
2017-05-20T07:40:03.210Z,1006.63
2017-05-20T07:50:02.601Z,1006.54
2017-05-20T08:00:03.165Z,1006.69
2017-05-20T08:10:03.099Z,1006.8
2017-05-20T08:20:02.398Z,1006.84
2017-05-20T08:30:02.691Z,1007.02
2017-05-20T08:40:03.325Z,1006.99
2017-05-20T08:50:02.788Z,1007.14
2017-05-20T09:00:03.180Z,1007.21
2017-05-20T09:10:02.749Z,1007.36
2017-05-20T09:20:03.229Z,1007.42
2017-05-20T09:30:03.054Z,1007.99
2017-05-20T09:40:02.502Z,1007.76
2017-05-20T09:50:02.710Z,1007.84
2017-05-20T10:00:02.772Z,1007.91
2017-05-20T10:10:02.512Z,1008.28
2017-05-20T10:20:03.037Z,1008.2
2017-05-20T10:30:03.382Z,1008.22
2017-05-20T10:40:02.846Z,1008.38
2017-05-20T10:50:02.593Z,1008.45
2017-05-20T11:00:02.879Z,1008.61
2017-05-20T11:10:03.207Z,1008.68
2017-05-20T11:20:03.253Z,1008.58
2017-05-20T11:30:02.866Z,1008.64
2017-05-20T11:40:02.466Z,1008.6
2017-05-20T11:50:03.198Z,1008.74
2017-05-20T12:00:03.234Z,1008.72
2017-05-20T12:10:02.484Z,1008.67
2017-05-20T12:20:02.949Z,1008.82
2017-05-20T12:30:03.182Z,1008.98
2017-05-20T12:40:02.603Z,1008.97
2017-05-20T12:50:03.333Z,1008.98
2017-05-20T13:00:02.392Z,1009.2
2017-05-20T13:10:03.166Z,1009.12
2017-05-20T13:20:02.978Z,1009.22
2017-05-20T13:30:03.306Z,1009.25
2017-05-20T13:40:03.130Z,1009.4
2017-05-20T13:50:03.217Z,1009.33
2017-05-20T14:00:03.346Z,1009.44
2017-05-20T14:10:02.395Z,1009.54
2017-05-20T14:20:03.261Z,1009.58
2017-05-20T14:30:02.640Z,1009.67
2017-05-20T14:40:02.696Z,1009.74
2017-05-20T14:50:03.236Z,1009.89
2017-05-20T15:00:02.652Z,1009.82
2017-05-20T15:10:03.001Z,1009.87
2017-05-20T15:20:02.540Z,1009.9
2017-05-20T15:30:02.880Z,1010.08
2017-05-20T15:40:02.474Z,1010.12
2017-05-20T15:50:02.958Z,1010.15
2017-05-20T16:00:03.438Z,1010.28
2017-05-20T16:10:02.582Z,1010.3
2017-05-20T16:20:03.243Z,1010.25
2017-05-20T16:30:02.806Z,1010.32
2017-05-20T16:40:02.442Z,1010.46
2017-05-20T16:50:02.899Z,1010.53
2017-05-20T17:00:02.962Z,1010.58
2017-05-20T17:10:02.580Z,1010.64
2017-05-20T17:20:02.528Z,1010.82
2017-05-20T17:30:02.810Z,1010.99
2017-05-20T17:40:02.428Z,1011.04
2017-05-20T17:50:03.230Z,1011.17
2017-05-20T18:00:03.258Z,1011.32
2017-05-20T18:10:02.852Z,1011.4
2017-05-20T18:20:03.016Z,1011.61
2017-05-20T18:30:02.533Z,1011.59
2017-05-20T18:40:03.011Z,1011.76
2017-05-20T18:50:02.446Z,1011.78
2017-05-20T19:00:02.861Z,1011.83
2017-05-20T19:10:03.359Z,1011.89
2017-05-20T19:20:03.373Z,1011.97
2017-05-20T19:30:02.849Z,1012.12
2017-05-20T19:40:03.300Z,1012.34
2017-05-20T19:50:02.534Z,1012.45
2017-05-20T20:00:03.029Z,1012.52
2017-05-20T20:10:02.506Z,1012.67
2017-05-20T20:20:03.331Z,1012.65
2017-05-20T20:30:02.814Z,1012.73
2017-05-20T20:40:03.263Z,1012.81
2017-05-20T20:50:03.101Z,1012.86
2017-05-20T21:00:02.531Z,1012.92
2017-05-20T21:10:02.642Z,1012.94
2017-05-20T21:20:03.245Z,1013.06
2017-05-20T21:30:02.669Z,1013.1
2017-05-20T21:40:03.397Z,1013.26
2017-05-20T21:50:02.959Z,1013.27
2017-05-20T22:00:02.533Z,1013.38
2017-05-20T22:10:03.106Z,1013.46
2017-05-20T22:20:02.758Z,1013.51
2017-05-20T22:30:03.221Z,1013.73
2017-05-20T22:40:03.209Z,1013.8
2017-05-20T22:50:02.680Z,1013.96
2017-05-20T23:00:03.135Z,1014
2017-05-20T23:10:02.541Z,1013.99
2017-05-20T23:20:02.451Z,1014.1
2017-05-20T23:30:02.907Z,1014.15
2017-05-20T23:40:02.433Z,1014.09
2017-05-20T23:50:02.752Z,1014.18
